createdAt,value
2023-01-29T00:00:21.622Z,5.60
2023-01-29T00:00:54.287Z,5.20
2023-01-29T00:01:26.951Z,5.70
2023-01-29T00:01:59.693Z,5.40
2023-01-29T00:02:32.354Z,5.70
2023-01-29T00:03:05.101Z,5.40
2023-01-29T00:03:37.747Z,5.60
2023-01-29T00:04:10.424Z,5.70
2023-01-29T00:04:43.104Z,5.40
2023-01-29T00:05:28.463Z,5.70
2023-01-29T00:05:47.871Z,5.80
2023-01-29T00:06:14.049Z,6.00
2023-01-29T00:06:46.744Z,6.00
2023-01-29T00:07:19.568Z,5.70
2023-01-29T00:07:52.230Z,5.80
2023-01-29T00:08:24.900Z,6.00
2023-01-29T00:08:57.572Z,5.90
2023-01-29T00:09:30.247Z,6.40
2023-01-29T00:10:02.923Z,6.00
2023-01-29T00:10:35.593Z,6.00
2023-01-29T00:11:06.688Z,6.30
2023-01-29T00:11:39.355Z,5.90
2023-01-29T00:12:12.045Z,6.10
2023-01-29T00:12:44.710Z,5.80
2023-01-29T00:13:17.380Z,6.10
2023-01-29T00:13:51.076Z,6.50
2023-01-29T00:14:17.256Z,6.20
2023-01-29T00:14:49.923Z,6.00
2023-01-29T00:15:22.598Z,6.20
2023-01-29T00:15:55.275Z,6.40
2023-01-29T00:16:27.940Z,6.30
2023-01-29T00:17:00.670Z,6.20
2023-01-29T00:17:31.714Z,6.20
2023-01-29T00:18:04.407Z,6.40
2023-01-29T00:18:37.056Z,6.90
2023-01-29T00:19:09.720Z,6.10
2023-01-29T00:19:42.388Z,6.70
2023-01-29T00:20:15.463Z,6.40
2023-01-29T00:20:41.915Z,6.60
2023-01-29T00:21:14.606Z,6.00
2023-01-29T00:21:47.280Z,6.60
2023-01-29T00:22:19.949Z,6.50
2023-01-29T00:22:52.623Z,6.20
2023-01-29T00:23:25.332Z,6.40
2023-01-29T00:23:58.080Z,6.50
2023-01-29T00:24:30.794Z,6.30
2023-01-29T00:25:03.433Z,6.70
2023-01-29T00:25:36.108Z,6.60
2023-01-29T00:26:08.781Z,6.30
2023-01-29T00:26:41.465Z,6.80
2023-01-29T00:27:14.131Z,6.40
2023-01-29T00:27:46.795Z,6.30
2023-01-29T00:28:19.461Z,7.30
2023-01-29T00:28:52.132Z,7.10
2023-01-29T00:29:24.804Z,6.90
2023-01-29T00:29:57.483Z,7.00
2023-01-29T00:30:28.578Z,7.30
2023-01-29T00:31:01.346Z,6.90
2023-01-29T00:31:34.107Z,7.00
2023-01-29T00:32:06.914Z,6.70
2023-01-29T00:32:39.634Z,7.20
2023-01-29T00:33:12.353Z,6.90
2023-01-29T00:33:44.989Z,7.10
2023-01-29T00:34:17.660Z,7.30
2023-01-29T00:34:50.322Z,7.30
2023-01-29T00:35:23.000Z,6.80
2023-01-29T00:35:55.657Z,7.30
2023-01-29T00:36:28.336Z,7.40
2023-01-29T00:37:01.004Z,7.20
2023-01-29T00:37:33.672Z,7.00
2023-01-29T00:38:06.345Z,7.30
2023-01-29T00:38:39.014Z,7.50
2023-01-29T00:39:11.678Z,7.10
2023-01-29T00:39:48.090Z,7.50
2023-01-29T00:40:15.125Z,7.40
2023-01-29T00:40:41.663Z,7.20
2023-01-29T00:41:14.338Z,7.40
2023-01-29T00:41:47.073Z,7.40
2023-01-29T00:42:19.726Z,7.70
2023-01-29T00:42:52.403Z,7.10
2023-01-29T00:43:25.088Z,7.30
2023-01-29T00:43:57.763Z,7.70
2023-01-29T00:44:30.418Z,8.00
2023-01-29T00:45:03.095Z,7.60
2023-01-29T00:45:35.766Z,7.40
2023-01-29T00:46:08.445Z,7.90
2023-01-29T00:46:41.224Z,7.60
2023-01-29T00:47:12.239Z,7.60
2023-01-29T00:47:44.911Z,8.10
2023-01-29T00:48:17.604Z,7.80
2023-01-29T00:48:50.339Z,7.90
2023-01-29T00:49:23.012Z,7.90
2023-01-29T00:49:55.697Z,7.90
2023-01-29T00:50:28.379Z,7.50
2023-01-29T00:51:01.049Z,7.50
2023-01-29T00:51:33.728Z,7.80
2023-01-29T00:52:06.441Z,7.90
2023-01-29T00:52:39.106Z,8.00
2023-01-29T00:53:11.781Z,8.10
2023-01-29T00:53:44.482Z,8.10
2023-01-29T00:54:17.140Z,8.30
2023-01-29T00:54:49.809Z,7.90
2023-01-29T00:55:22.479Z,8.20
2023-01-29T00:55:55.154Z,8.20
2023-01-29T00:56:27.828Z,7.70
2023-01-29T00:57:00.522Z,8.20
2023-01-29T00:57:33.196Z,8.10
2023-01-29T00:58:05.874Z,8.50
2023-01-29T00:58:38.545Z,8.80
2023-01-29T00:59:11.226Z,8.10
2023-01-29T00:59:43.895Z,8.40
2023-01-29T01:00:16.992Z,8.50
2023-01-29T01:00:43.433Z,8.60
2023-01-29T01:01:16.225Z,8.80
2023-01-29T01:01:48.983Z,8.40
2023-01-29T01:02:21.748Z,8.60
2023-01-29T01:02:54.465Z,9.10
2023-01-29T01:03:27.159Z,8.70
2023-01-29T01:03:59.898Z,9.00
2023-01-29T01:04:34.957Z,8.80
2023-01-29T01:05:01.199Z,8.80
2023-01-29T01:05:33.879Z,9.00
2023-01-29T01:06:06.565Z,8.90
2023-01-29T01:06:39.235Z,8.70
2023-01-29T01:07:47.067Z,8.80
2023-01-29T01:08:19.739Z,9.20
2023-01-29T01:08:52.412Z,9.20
2023-01-29T01:09:25.083Z,8.90
2023-01-29T01:09:57.765Z,9.30
2023-01-29T01:10:30.465Z,9.40
2023-01-29T01:11:03.123Z,9.20
2023-01-29T01:11:35.803Z,9.20
2023-01-29T01:12:08.498Z,9.30
2023-01-29T01:12:41.171Z,9.30
2023-01-29T01:13:13.834Z,9.10
2023-01-29T01:13:46.505Z,9.40
2023-01-29T01:14:19.176Z,9.60
2023-01-29T01:14:51.861Z,9.20
2023-01-29T01:15:24.540Z,9.30
2023-01-29T01:15:57.226Z,9.30
2023-01-29T01:16:29.980Z,9.80
2023-01-29T01:17:02.672Z,10.10
2023-01-29T01:17:35.343Z,10.00
2023-01-29T01:18:08.043Z,10.10
2023-01-29T01:18:40.704Z,9.50
2023-01-29T01:19:13.362Z,9.20
2023-01-29T01:19:46.035Z,9.70
2023-01-29T01:20:19.096Z,9.20
2023-01-29T01:20:45.356Z,9.90
2023-01-29T01:21:18.040Z,9.60
2023-01-29T01:21:50.713Z,10.00
2023-01-29T01:22:23.374Z,9.80
2023-01-29T01:22:56.064Z,9.70
2023-01-29T01:23:28.739Z,10.10
2023-01-29T01:24:01.414Z,10.00
2023-01-29T01:24:34.079Z,10.30
2023-01-29T01:25:06.749Z,10.10
2023-01-29T01:25:39.420Z,9.50
2023-01-29T01:26:12.090Z,9.70
2023-01-29T01:26:44.748Z,9.30
2023-01-29T01:27:17.438Z,9.90
2023-01-29T01:27:50.109Z,10.00
2023-01-29T01:28:22.777Z,9.60
2023-01-29T01:28:55.445Z,10.10
2023-01-29T01:29:28.109Z,10.20
2023-01-29T01:30:00.790Z,10.00
2023-01-29T01:30:33.457Z,9.40
2023-01-29T01:31:06.230Z,10.50
2023-01-29T01:31:38.999Z,9.40
2023-01-29T01:32:10.041Z,10.50
2023-01-29T01:32:42.708Z,10.10
2023-01-29T01:33:15.384Z,10.30
2023-01-29T01:33:48.080Z,10.30
2023-01-29T01:34:20.745Z,10.00
2023-01-29T01:34:53.408Z,10.30
2023-01-29T01:35:26.085Z,10.00
2023-01-29T01:35:58.751Z,10.40
2023-01-29T01:36:31.426Z,10.20
2023-01-29T01:37:04.109Z,9.80
2023-01-29T01:37:37.411Z,10.90
2023-01-29T01:38:03.569Z,10.00
2023-01-29T01:38:36.241Z,10.80
2023-01-29T01:39:08.909Z,10.10
2023-01-29T01:39:41.582Z,10.50
2023-01-29T01:40:14.512Z,10.80
2023-01-29T01:40:40.922Z,10.20
2023-01-29T01:41:13.592Z,10.90
2023-01-29T01:41:46.290Z,11.00
2023-01-29T01:42:18.966Z,10.50
2023-01-29T01:42:51.634Z,10.40
2023-01-29T01:43:24.318Z,10.80
2023-01-29T01:43:56.989Z,10.80
2023-01-29T01:44:28.082Z,10.70
2023-01-29T01:45:00.752Z,10.50
2023-01-29T01:45:33.501Z,10.50
2023-01-29T01:46:06.243Z,10.70
2023-01-29T01:46:38.924Z,10.40
2023-01-29T01:47:11.630Z,11.20
2023-01-29T01:47:44.291Z,10.30
2023-01-29T01:48:16.963Z,11.00
2023-01-29T01:48:49.630Z,10.60
2023-01-29T01:49:22.341Z,10.20
2023-01-29T01:49:55.006Z,10.70
2023-01-29T01:50:27.692Z,10.40
2023-01-29T01:51:00.358Z,10.30
2023-01-29T01:51:33.028Z,10.70
2023-01-29T01:52:05.724Z,10.90
2023-01-29T01:52:38.399Z,11.30
2023-01-29T01:53:07.173Z,11.10
2023-01-29T01:53:39.855Z,10.80
2023-01-29T01:54:12.529Z,10.90
2023-01-29T01:54:45.219Z,10.80
2023-01-29T01:55:17.892Z,10.90
2023-01-29T01:55:50.577Z,11.00
2023-01-29T01:56:23.245Z,11.10
2023-01-29T01:56:55.941Z,11.10
2023-01-29T01:57:28.609Z,10.50
2023-01-29T01:58:01.278Z,10.60
2023-01-29T01:58:33.941Z,10.90
2023-01-29T01:59:06.622Z,10.90
2023-01-29T01:59:39.286Z,11.30
2023-01-29T02:00:11.990Z,10.60
2023-01-29T02:00:44.693Z,10.60
2023-01-29T02:01:17.390Z,10.70
2023-01-29T02:01:50.211Z,10.70
2023-01-29T02:02:22.944Z,11.20
2023-01-29T02:02:55.643Z,11.00
2023-01-29T02:03:28.318Z,11.00
2023-01-29T02:04:00.988Z,10.80
2023-01-29T02:04:33.659Z,11.30
2023-01-29T02:05:06.313Z,11.30
2023-01-29T02:05:38.977Z,10.60
2023-01-29T02:06:11.638Z,11.00
2023-01-29T02:06:44.345Z,11.20
2023-01-29T02:07:17.002Z,11.30
2023-01-29T02:07:49.679Z,10.10
2023-01-29T02:08:22.409Z,11.10
2023-01-29T02:08:55.085Z,11.10
2023-01-29T02:09:27.741Z,11.20
2023-01-29T02:10:00.410Z,10.40
2023-01-29T02:10:33.082Z,11.40
2023-01-29T02:11:05.743Z,11.20
2023-01-29T02:11:38.415Z,11.30
2023-01-29T02:12:11.104Z,11.80
2023-01-29T02:12:43.766Z,11.20
2023-01-29T02:13:16.441Z,11.60
2023-01-29T02:13:49.114Z,10.90
2023-01-29T02:14:21.808Z,11.40
2023-01-29T02:14:52.896Z,10.80
2023-01-29T02:15:25.588Z,11.20
2023-01-29T02:15:58.251Z,11.20
2023-01-29T02:16:30.933Z,11.60
2023-01-29T02:17:03.697Z,11.30
2023-01-29T02:17:36.373Z,11.40
2023-01-29T02:18:09.058Z,11.50
2023-01-29T02:18:41.733Z,11.70
2023-01-29T02:19:14.393Z,11.90
2023-01-29T02:19:47.167Z,11.80
2023-01-29T02:20:19.818Z,11.60
2023-01-29T02:20:52.500Z,11.30
2023-01-29T02:21:25.252Z,11.20
2023-01-29T02:21:57.928Z,11.80
2023-01-29T02:22:30.618Z,12.00
2023-01-29T02:23:03.823Z,11.60
2023-01-29T02:23:30.049Z,11.10
2023-01-29T02:24:02.819Z,11.70
2023-01-29T02:24:35.538Z,12.00
2023-01-29T02:25:08.207Z,11.80
2023-01-29T02:25:40.874Z,11.10
2023-01-29T02:26:13.544Z,11.90
2023-01-29T02:26:46.235Z,11.40
2023-01-29T02:27:18.924Z,11.20
2023-01-29T02:27:51.588Z,11.40
2023-01-29T02:28:24.264Z,11.60
2023-01-29T02:28:56.937Z,11.70
2023-01-29T02:29:29.624Z,11.70
2023-01-29T02:30:02.300Z,11.70
2023-01-29T02:30:34.975Z,12.30
2023-01-29T02:31:07.707Z,11.10
2023-01-29T02:31:40.458Z,11.40
2023-01-29T02:32:13.127Z,11.90
2023-01-29T02:32:45.799Z,11.60
2023-01-29T02:33:18.463Z,11.20
2023-01-29T02:33:51.145Z,11.80
2023-01-29T02:34:23.799Z,12.20
2023-01-29T02:34:56.497Z,11.50
2023-01-29T02:35:29.150Z,11.70
2023-01-29T02:36:01.814Z,11.60
2023-01-29T02:36:34.481Z,11.70
2023-01-29T02:37:07.166Z,11.90
2023-01-29T02:37:39.942Z,12.20
2023-01-29T02:38:12.592Z,12.10
2023-01-29T02:38:45.264Z,11.60
2023-01-29T02:39:17.941Z,11.80
2023-01-29T02:39:50.592Z,11.70
2023-01-29T02:40:23.251Z,11.80
2023-01-29T02:40:54.378Z,11.60
2023-01-29T02:41:27.020Z,11.60
2023-01-29T02:41:59.706Z,11.30
2023-01-29T02:42:32.376Z,11.30
2023-01-29T02:43:05.038Z,11.60
2023-01-29T02:43:37.713Z,11.90
2023-01-29T02:44:10.380Z,11.10
2023-01-29T02:44:43.040Z,12.20
2023-01-29T02:45:15.712Z,11.70
2023-01-29T02:45:48.428Z,11.40
2023-01-29T02:46:21.120Z,11.40
2023-01-29T02:46:53.799Z,11.30
2023-01-29T02:47:26.470Z,12.00
2023-01-29T02:47:59.157Z,11.90
2023-01-29T02:48:31.826Z,11.70
2023-01-29T02:49:04.495Z,11.50
2023-01-29T02:49:37.161Z,11.70
2023-01-29T02:50:09.860Z,11.60
2023-01-29T02:50:42.513Z,11.90
2023-01-29T02:51:15.181Z,11.90
2023-01-29T02:51:47.873Z,11.90
2023-01-29T02:52:20.546Z,11.20
2023-01-29T02:52:53.213Z,11.40
2023-01-29T02:53:25.899Z,12.20
2023-01-29T02:53:58.586Z,11.80
2023-01-29T02:54:31.240Z,11.70
2023-01-29T02:55:03.929Z,11.30
2023-01-29T02:55:36.604Z,12.10
2023-01-29T02:56:09.261Z,11.80
2023-01-29T02:56:41.928Z,11.50
2023-01-29T02:57:14.612Z,11.60
2023-01-29T02:57:47.272Z,11.30
2023-01-29T02:58:19.946Z,11.60
2023-01-29T02:58:52.615Z,11.90
2023-01-29T02:59:25.297Z,12.10
2023-01-29T02:59:57.963Z,11.70
2023-01-29T03:00:30.638Z,11.70
2023-01-29T03:01:03.318Z,11.70
2023-01-29T03:01:35.972Z,11.90
2023-01-29T03:02:08.695Z,11.30
2023-01-29T03:02:41.351Z,11.80
2023-01-29T03:03:14.022Z,11.70
2023-01-29T03:03:46.703Z,11.90
2023-01-29T03:04:19.369Z,11.60
2023-01-29T03:04:52.047Z,11.50
2023-01-29T03:05:24.727Z,11.70
2023-01-29T03:05:57.367Z,11.40
2023-01-29T03:06:30.045Z,11.60
2023-01-29T03:07:02.742Z,11.70
2023-01-29T03:07:35.396Z,12.20
2023-01-29T03:08:08.069Z,11.90
2023-01-29T03:08:40.743Z,11.60
2023-01-29T03:09:13.416Z,12.50
2023-01-29T03:09:46.089Z,11.70
2023-01-29T03:10:18.913Z,12.00
2023-01-29T03:10:51.621Z,11.90
2023-01-29T03:11:24.288Z,12.20
2023-01-29T03:11:56.974Z,12.00
2023-01-29T03:12:29.644Z,12.50
2023-01-29T03:13:02.314Z,11.50
2023-01-29T03:13:35.006Z,11.60
2023-01-29T03:14:07.731Z,12.40
2023-01-29T03:14:38.822Z,11.80
2023-01-29T03:15:11.508Z,12.10
2023-01-29T03:15:44.174Z,11.70
2023-01-29T03:16:16.869Z,11.60
2023-01-29T03:16:49.563Z,12.10
2023-01-29T03:17:22.280Z,12.20
2023-01-29T03:17:54.943Z,11.50
2023-01-29T03:18:27.636Z,12.00
2023-01-29T03:19:00.296Z,12.20
2023-01-29T03:19:33.022Z,12.00
2023-01-29T03:20:05.706Z,11.80
2023-01-29T03:20:38.411Z,12.10
2023-01-29T03:21:11.059Z,12.40
2023-01-29T03:21:43.751Z,12.00
2023-01-29T03:22:16.440Z,12.00
2023-01-29T03:22:49.137Z,11.30
2023-01-29T03:23:21.823Z,12.00
2023-01-29T03:23:54.555Z,12.20
2023-01-29T03:24:27.319Z,12.10
2023-01-29T03:24:59.963Z,12.40
2023-01-29T03:25:32.641Z,12.70
2023-01-29T03:26:05.319Z,12.70
2023-01-29T03:26:37.996Z,12.20
2023-01-29T03:27:10.701Z,11.90
2023-01-29T03:27:43.366Z,12.40
2023-01-29T03:28:16.035Z,12.40
2023-01-29T03:28:48.731Z,12.00
2023-01-29T03:29:21.380Z,12.00
2023-01-29T03:29:54.055Z,11.60
2023-01-29T03:30:26.738Z,12.10
2023-01-29T03:30:59.509Z,12.10
2023-01-29T03:31:32.299Z,12.00
2023-01-29T03:32:05.167Z,12.00
2023-01-29T03:32:37.798Z,12.00
2023-01-29T03:33:10.472Z,12.10
2023-01-29T03:33:43.159Z,12.30
2023-01-29T03:34:15.818Z,12.40
2023-01-29T03:34:48.495Z,12.30
2023-01-29T03:35:21.155Z,11.90
2023-01-29T03:35:53.856Z,12.00
2023-01-29T03:36:26.490Z,11.90
2023-01-29T03:36:59.192Z,12.00
2023-01-29T03:37:31.857Z,12.10
2023-01-29T03:38:04.526Z,12.10
2023-01-29T03:38:37.200Z,12.40
2023-01-29T03:39:09.866Z,12.30
2023-01-29T03:39:42.541Z,12.00
2023-01-29T03:40:15.687Z,12.20
2023-01-29T03:40:41.953Z,12.00
2023-01-29T03:41:14.626Z,12.00
2023-01-29T03:41:47.311Z,12.60
2023-01-29T03:42:19.996Z,12.70
2023-01-29T03:42:52.655Z,12.10
2023-01-29T03:43:25.359Z,12.80
2023-01-29T03:43:58.004Z,12.10
2023-01-29T03:44:30.679Z,12.40
2023-01-29T03:45:03.351Z,12.30
2023-01-29T03:45:36.090Z,12.30
2023-01-29T03:46:08.818Z,12.00
2023-01-29T03:46:41.530Z,12.10
2023-01-29T03:47:14.194Z,12.20
2023-01-29T03:47:46.868Z,12.30
2023-01-29T03:48:19.541Z,12.50
2023-01-29T03:48:52.212Z,12.00
2023-01-29T03:49:24.875Z,12.10
2023-01-29T03:49:57.545Z,12.50
2023-01-29T03:50:30.216Z,11.90
2023-01-29T03:51:02.884Z,12.20
2023-01-29T03:51:35.571Z,12.00
2023-01-29T03:52:08.237Z,11.70
2023-01-29T03:52:40.909Z,12.20
2023-01-29T03:53:13.586Z,11.80
2023-01-29T03:53:46.240Z,12.50
2023-01-29T03:54:18.917Z,11.90
2023-01-29T03:54:51.580Z,12.10
2023-01-29T03:55:24.238Z,12.30
2023-01-29T03:55:56.912Z,12.50
2023-01-29T03:56:29.600Z,12.00
2023-01-29T03:57:02.277Z,12.50
2023-01-29T03:57:34.956Z,12.00
2023-01-29T03:58:07.624Z,12.10
2023-01-29T03:58:40.308Z,12.20
2023-01-29T03:59:12.962Z,11.50
2023-01-29T03:59:45.632Z,11.80
2023-01-29T04:00:18.545Z,12.30
2023-01-29T04:00:44.906Z,12.30
2023-01-29T04:01:17.600Z,12.10
2023-01-29T04:01:50.289Z,12.30
2023-01-29T04:02:22.955Z,12.40
2023-01-29T04:02:55.662Z,12.50
2023-01-29T04:03:28.317Z,12.80
2023-01-29T04:04:01.016Z,12.30
2023-01-29T04:04:33.660Z,12.50
2023-01-29T04:05:06.325Z,12.50
2023-01-29T04:05:39.007Z,12.70
2023-01-29T04:06:11.681Z,12.20
2023-01-29T04:06:44.364Z,12.60
2023-01-29T04:07:17.045Z,12.80
2023-01-29T04:07:49.707Z,12.20
2023-01-29T04:08:22.377Z,12.20
2023-01-29T04:08:55.055Z,12.80
2023-01-29T04:09:27.744Z,12.30
2023-01-29T04:10:00.405Z,12.30
2023-01-29T04:10:33.080Z,12.20
2023-01-29T04:11:05.761Z,12.10
2023-01-29T04:11:38.423Z,12.80
2023-01-29T04:12:11.105Z,12.80
2023-01-29T04:12:43.778Z,12.40
2023-01-29T04:13:16.437Z,12.40
2023-01-29T04:13:49.107Z,13.40
2023-01-29T04:14:21.775Z,13.40
2023-01-29T04:14:54.449Z,12.40
2023-01-29T04:15:27.111Z,12.80
2023-01-29T04:15:59.783Z,12.40
2023-01-29T04:16:32.534Z,12.90
2023-01-29T04:17:05.217Z,12.40
2023-01-29T04:17:37.881Z,12.50
2023-01-29T04:18:10.559Z,12.10
2023-01-29T04:18:43.217Z,12.70
2023-01-29T04:19:15.895Z,12.60
2023-01-29T04:19:48.557Z,12.60
2023-01-29T04:20:21.244Z,12.70
2023-01-29T04:20:53.912Z,12.50
2023-01-29T04:21:26.579Z,13.20
2023-01-29T04:21:59.274Z,13.30
2023-01-29T04:22:31.954Z,12.90
2023-01-29T04:23:04.618Z,12.80
2023-01-29T04:23:37.293Z,13.10
2023-01-29T04:24:10.015Z,12.70
2023-01-29T04:24:42.670Z,13.40
2023-01-29T04:25:15.352Z,12.50
2023-01-29T04:25:48.037Z,12.80
2023-01-29T04:26:19.111Z,13.40
2023-01-29T04:26:51.803Z,13.40
2023-01-29T04:27:24.461Z,13.30
2023-01-29T04:27:57.146Z,12.80
2023-01-29T04:28:29.808Z,13.30
2023-01-29T04:29:02.495Z,13.30
2023-01-29T04:29:35.163Z,13.50
2023-01-29T04:30:07.828Z,13.50
2023-01-29T04:30:40.515Z,13.20
2023-01-29T04:31:13.419Z,13.20
2023-01-29T04:31:39.823Z,13.50
2023-01-29T04:32:12.560Z,12.80
2023-01-29T04:32:45.213Z,13.60
2023-01-29T04:33:17.887Z,13.20
2023-01-29T04:33:50.558Z,13.20
2023-01-29T04:34:23.232Z,13.30
2023-01-29T04:34:55.913Z,13.80
2023-01-29T04:35:28.591Z,13.00
2023-01-29T04:36:01.245Z,14.00
2023-01-29T04:36:33.922Z,13.40
2023-01-29T04:37:06.608Z,13.80
2023-01-29T04:37:39.277Z,13.50
2023-01-29T04:38:11.950Z,13.90
2023-01-29T04:38:44.667Z,14.00
2023-01-29T04:39:17.320Z,13.20
2023-01-29T04:39:49.988Z,13.90
2023-01-29T04:40:22.673Z,14.20
2023-01-29T04:40:55.359Z,14.30
2023-01-29T04:41:28.008Z,14.30
2023-01-29T04:42:00.702Z,14.10
2023-01-29T04:42:33.376Z,14.40
2023-01-29T04:43:06.040Z,13.70
2023-01-29T04:43:38.711Z,13.90
2023-01-29T04:44:11.407Z,14.10
2023-01-29T04:44:44.054Z,13.80
2023-01-29T04:45:16.740Z,14.40
2023-01-29T04:45:49.403Z,14.10
2023-01-29T04:46:22.060Z,14.00
2023-01-29T04:46:54.755Z,14.70
2023-01-29T04:47:27.466Z,13.70
2023-01-29T04:48:00.182Z,14.40
2023-01-29T04:48:32.854Z,14.80
2023-01-29T04:49:05.519Z,15.00
2023-01-29T04:49:38.183Z,14.00
2023-01-29T04:50:10.847Z,14.50
2023-01-29T04:50:43.519Z,14.20
2023-01-29T04:51:16.206Z,14.70
2023-01-29T04:51:48.907Z,15.00
2023-01-29T04:52:21.563Z,14.40
2023-01-29T04:52:54.242Z,15.00
2023-01-29T04:53:26.913Z,15.20
2023-01-29T04:53:59.584Z,14.70
2023-01-29T04:54:32.252Z,14.80
2023-01-29T04:55:04.930Z,14.90
2023-01-29T04:55:37.597Z,14.70
2023-01-29T04:56:10.271Z,16.00
2023-01-29T04:56:42.940Z,15.70
2023-01-29T04:57:15.630Z,15.10
2023-01-29T04:57:48.306Z,15.50
2023-01-29T04:58:20.977Z,15.30
2023-01-29T04:58:53.642Z,15.00
2023-01-29T04:59:26.308Z,15.20
2023-01-29T04:59:58.996Z,14.90
2023-01-29T05:00:31.652Z,15.00
2023-01-29T05:01:04.312Z,14.90
2023-01-29T05:01:37.030Z,15.20
2023-01-29T05:02:09.696Z,15.30
2023-01-29T05:02:42.436Z,16.30
2023-01-29T05:03:15.080Z,15.60
2023-01-29T05:03:47.828Z,15.00
2023-01-29T05:04:20.473Z,15.20
2023-01-29T05:04:53.164Z,15.30
2023-01-29T05:05:25.826Z,15.40
2023-01-29T05:05:58.497Z,15.70
2023-01-29T05:06:31.167Z,15.50
2023-01-29T05:07:03.873Z,15.60
2023-01-29T05:07:36.525Z,15.20
2023-01-29T05:08:09.206Z,16.10
2023-01-29T05:08:41.866Z,15.70
2023-01-29T05:09:14.539Z,15.90
2023-01-29T05:09:47.204Z,16.30
2023-01-29T05:10:20.205Z,15.40
2023-01-29T05:10:46.414Z,15.90
2023-01-29T05:11:19.093Z,16.00
2023-01-29T05:11:51.774Z,15.80
2023-01-29T05:12:24.444Z,15.90
2023-01-29T05:12:57.106Z,16.10
2023-01-29T05:13:29.789Z,16.20
2023-01-29T05:14:02.438Z,15.50
2023-01-29T05:14:35.109Z,15.60
2023-01-29T05:15:07.781Z,15.70
2023-01-29T05:15:40.453Z,15.50
2023-01-29T05:16:13.227Z,16.00
2023-01-29T05:16:45.944Z,15.90
2023-01-29T05:17:18.621Z,15.60
2023-01-29T05:17:51.285Z,15.00
2023-01-29T05:18:23.996Z,15.80
2023-01-29T05:18:56.665Z,16.00
2023-01-29T05:19:29.363Z,15.50
2023-01-29T05:20:02.039Z,15.60
2023-01-29T05:20:34.711Z,17.10
2023-01-29T05:21:07.396Z,16.00
2023-01-29T05:21:41.162Z,15.50
2023-01-29T05:22:07.428Z,16.00
2023-01-29T05:22:40.086Z,16.20
2023-01-29T05:23:12.756Z,15.80
2023-01-29T05:23:45.418Z,16.20
2023-01-29T05:24:18.101Z,15.80
2023-01-29T05:24:50.800Z,16.00
2023-01-29T05:25:23.462Z,16.20
2023-01-29T05:25:56.126Z,16.00
2023-01-29T05:26:28.798Z,15.90
2023-01-29T05:27:01.487Z,16.00
2023-01-29T05:27:34.151Z,16.40
2023-01-29T05:28:06.823Z,16.20
2023-01-29T05:28:39.515Z,15.00
2023-01-29T05:29:12.205Z,15.30
2023-01-29T05:29:44.857Z,15.80
2023-01-29T05:30:17.919Z,15.50
2023-01-29T05:30:44.317Z,15.90
2023-01-29T05:31:17.156Z,15.50
2023-01-29T05:31:49.882Z,16.30
2023-01-29T05:32:22.558Z,15.50
2023-01-29T05:32:55.241Z,15.80
2023-01-29T05:33:27.917Z,15.30
2023-01-29T05:34:00.586Z,16.20
2023-01-29T05:34:33.271Z,16.20
2023-01-29T05:35:05.939Z,16.30
2023-01-29T05:35:38.610Z,15.60
2023-01-29T05:36:11.279Z,16.40
2023-01-29T05:36:43.966Z,16.50
2023-01-29T05:37:16.639Z,16.30
2023-01-29T05:37:49.310Z,16.10
2023-01-29T05:38:21.987Z,15.30
2023-01-29T05:38:54.652Z,16.30
2023-01-29T05:39:27.320Z,15.50
2023-01-29T05:39:59.982Z,16.00
2023-01-29T05:40:32.651Z,15.80
2023-01-29T05:41:05.332Z,16.00
2023-01-29T05:41:37.995Z,16.40
2023-01-29T05:42:10.674Z,15.30
2023-01-29T05:42:43.345Z,15.20
2023-01-29T05:43:14.441Z,16.00
2023-01-29T05:43:47.105Z,15.90
2023-01-29T05:44:19.799Z,15.90
2023-01-29T05:44:52.534Z,15.80
2023-01-29T05:45:25.208Z,16.00
2023-01-29T05:45:57.874Z,15.90
2023-01-29T05:46:30.645Z,16.10
2023-01-29T05:47:03.329Z,15.80
2023-01-29T05:47:36.009Z,15.10
2023-01-29T05:48:08.674Z,15.80
2023-01-29T05:48:41.389Z,15.90
2023-01-29T05:49:14.071Z,16.60
2023-01-29T05:49:46.740Z,15.60
2023-01-29T05:50:19.512Z,16.20
2023-01-29T05:50:52.185Z,16.30
2023-01-29T05:51:24.852Z,16.00
2023-01-29T05:51:57.533Z,15.90
2023-01-29T05:52:30.212Z,15.80
2023-01-29T05:53:02.896Z,15.90
2023-01-29T05:53:35.560Z,16.60
2023-01-29T05:54:08.229Z,16.20
2023-01-29T05:54:40.940Z,16.50
2023-01-29T05:55:13.588Z,16.00
2023-01-29T05:55:46.253Z,16.30
2023-01-29T05:56:18.938Z,16.00
2023-01-29T05:56:51.628Z,16.20
2023-01-29T05:57:24.326Z,16.00
2023-01-29T05:57:57.022Z,16.10
2023-01-29T05:58:29.694Z,16.60
2023-01-29T05:59:02.942Z,15.90
2023-01-29T05:59:29.127Z,15.80
2023-01-29T06:00:02.804Z,15.80
2023-01-29T06:00:28.987Z,16.00
2023-01-29T06:01:01.665Z,15.80
2023-01-29T06:01:34.392Z,15.80
2023-01-29T06:02:07.133Z,16.30
2023-01-29T06:02:39.893Z,16.50
2023-01-29T06:03:12.658Z,16.30
2023-01-29T06:03:45.340Z,16.10
2023-01-29T06:04:18.027Z,16.20
2023-01-29T06:04:50.685Z,15.90
2023-01-29T06:05:23.372Z,15.80
2023-01-29T06:05:56.032Z,16.00
2023-01-29T06:06:28.719Z,15.50
2023-01-29T06:07:01.403Z,16.50
2023-01-29T06:07:34.074Z,15.80
2023-01-29T06:08:06.751Z,16.10
2023-01-29T06:08:39.414Z,16.50
2023-01-29T06:09:12.096Z,15.50
2023-01-29T06:09:44.755Z,16.40
2023-01-29T06:10:17.909Z,16.40
2023-01-29T06:10:44.278Z,15.80
2023-01-29T06:11:16.952Z,16.20
2023-01-29T06:11:49.623Z,16.00
2023-01-29T06:12:22.299Z,16.30
2023-01-29T06:12:54.968Z,15.90
2023-01-29T06:13:27.641Z,16.00
2023-01-29T06:14:00.354Z,16.10
2023-01-29T06:14:32.997Z,15.90
2023-01-29T06:15:05.663Z,16.50
2023-01-29T06:15:38.321Z,16.00
2023-01-29T06:16:11.033Z,16.00
2023-01-29T06:16:43.715Z,16.50
2023-01-29T06:17:16.400Z,16.60
2023-01-29T06:17:49.058Z,16.50
2023-01-29T06:18:21.717Z,16.30
2023-01-29T06:18:54.381Z,16.30
2023-01-29T06:19:27.185Z,16.50
2023-01-29T06:19:59.854Z,16.70
2023-01-29T06:20:32.530Z,16.50
2023-01-29T06:21:05.198Z,16.80
2023-01-29T06:21:37.863Z,16.50
2023-01-29T06:22:10.544Z,16.20
2023-01-29T06:22:43.224Z,16.90
2023-01-29T06:23:15.915Z,16.60
2023-01-29T06:23:48.594Z,16.80
2023-01-29T06:24:21.351Z,16.80
2023-01-29T06:24:54.086Z,16.50
2023-01-29T06:25:26.756Z,16.70
2023-01-29T06:25:59.427Z,16.50
2023-01-29T06:26:32.092Z,16.30
2023-01-29T06:27:04.786Z,16.80
2023-01-29T06:27:37.457Z,16.50
2023-01-29T06:28:10.121Z,16.70
2023-01-29T06:28:42.789Z,17.60
2023-01-29T06:29:15.457Z,16.90
2023-01-29T06:29:48.125Z,16.40
2023-01-29T06:30:20.785Z,16.50
2023-01-29T06:30:53.504Z,16.70
2023-01-29T06:31:38.277Z,17.40
2023-01-29T06:31:58.438Z,16.70
2023-01-29T06:32:24.766Z,17.20
2023-01-29T06:32:57.417Z,16.60
2023-01-29T06:33:30.087Z,16.90
2023-01-29T06:34:02.767Z,16.90
2023-01-29T06:34:35.439Z,17.10
2023-01-29T06:35:08.094Z,16.40
2023-01-29T06:35:40.784Z,16.70
2023-01-29T06:36:13.441Z,16.40
2023-01-29T06:36:46.121Z,16.90
2023-01-29T06:37:18.801Z,16.90
2023-01-29T06:37:51.452Z,17.00
2023-01-29T06:38:24.122Z,17.40
2023-01-29T06:38:56.797Z,17.50
2023-01-29T06:39:29.469Z,16.70
2023-01-29T06:40:02.134Z,16.90
2023-01-29T06:40:34.817Z,16.90
2023-01-29T06:41:07.479Z,17.10
2023-01-29T06:41:40.145Z,17.10
2023-01-29T06:42:12.828Z,17.60
2023-01-29T06:42:46.215Z,16.80
2023-01-29T06:43:12.399Z,17.70
2023-01-29T06:43:45.067Z,16.40
2023-01-29T06:44:17.745Z,17.00
2023-01-29T06:44:50.404Z,17.60
2023-01-29T06:45:23.129Z,17.50
2023-01-29T06:45:55.801Z,17.40
2023-01-29T06:46:28.469Z,16.80
2023-01-29T06:47:01.159Z,17.20
2023-01-29T06:47:33.837Z,17.30
2023-01-29T06:48:06.511Z,17.40
2023-01-29T06:48:39.176Z,16.90
2023-01-29T06:49:10.274Z,17.60
2023-01-29T06:49:42.937Z,17.10
2023-01-29T06:50:15.977Z,17.70
2023-01-29T06:50:42.323Z,17.30
2023-01-29T06:51:14.961Z,18.40
2023-01-29T06:51:47.652Z,17.10
2023-01-29T06:52:20.349Z,17.70
2023-01-29T06:52:52.996Z,17.50
2023-01-29T06:53:25.684Z,16.90
2023-01-29T06:53:58.348Z,17.10
2023-01-29T06:54:31.035Z,17.60
2023-01-29T06:55:03.691Z,17.10
2023-01-29T06:55:34.783Z,17.10
2023-01-29T06:56:07.467Z,17.30
2023-01-29T06:56:40.111Z,17.20
2023-01-29T06:57:12.804Z,17.00
2023-01-29T06:57:45.489Z,17.60
2023-01-29T06:58:18.146Z,17.40
2023-01-29T06:58:50.827Z,17.70
2023-01-29T06:59:23.490Z,17.70
2023-01-29T06:59:56.158Z,17.90
2023-01-29T07:00:31.264Z,17.80
2023-01-29T07:00:57.671Z,18.40
2023-01-29T07:01:36.233Z,17.50